createdAt,value
2022-08-19T00:00:56.514Z,933.51
2022-08-19T00:01:57.602Z,933.5
2022-08-19T00:02:58.240Z,933.54
2022-08-19T00:03:59.140Z,933.55
2022-08-19T00:04:59.880Z,933.57
2022-08-19T00:06:00.325Z,933.58
2022-08-19T00:07:01.378Z,933.57
2022-08-19T00:08:01.574Z,933.59
2022-08-19T00:09:02.207Z,933.55
2022-08-19T00:10:02.712Z,933.6
2022-08-19T00:11:02.916Z,933.62
2022-08-19T00:12:03.021Z,933.65
2022-08-19T00:13:03.239Z,933.64
2022-08-19T00:14:03.433Z,933.67
2022-08-19T00:15:03.781Z,933.7
2022-08-19T00:16:04.510Z,933.7
2022-08-19T00:17:04.803Z,933.64
2022-08-19T00:18:05.701Z,933.66
2022-08-19T00:19:06.647Z,933.6
2022-08-19T00:20:06.866Z,933.53
2022-08-19T00:21:07.483Z,933.53
2022-08-19T00:22:08.000Z,933.52
2022-08-19T00:23:08.470Z,933.51
2022-08-19T00:24:09.371Z,933.5
2022-08-19T00:25:09.556Z,933.48
2022-08-19T00:26:09.807Z,933.53
2022-08-19T00:27:25.404Z,933.51
2022-08-19T00:28:10.144Z,933.49
2022-08-19T00:29:10.336Z,933.46
2022-08-19T00:30:10.555Z,933.47
2022-08-19T00:31:10.877Z,933.44
2022-08-19T00:32:11.502Z,933.47
2022-08-19T00:33:11.639Z,933.46
2022-08-19T00:34:12.366Z,933.43
2022-08-19T00:35:12.584Z,933.48
2022-08-19T00:36:13.283Z,933.43
2022-08-19T00:37:13.902Z,933.42
2022-08-19T00:38:14.115Z,933.37
2022-08-19T00:39:14.591Z,933.32
2022-08-19T00:40:15.354Z,933.23
2022-08-19T00:41:15.575Z,933.29
2022-08-19T00:42:15.885Z,933.35
2022-08-19T00:43:16.093Z,933.4
2022-08-19T00:44:16.314Z,933.41
2022-08-19T00:45:16.717Z,933.47
2022-08-19T00:46:16.929Z,933.51
2022-08-19T00:47:17.138Z,933.51
2022-08-19T00:48:17.435Z,933.53
2022-08-19T00:49:17.928Z,933.55
2022-08-19T00:50:18.395Z,933.54
2022-08-19T00:51:18.925Z,933.54
2022-08-19T00:52:19.130Z,933.56
2022-08-19T00:53:19.332Z,933.46
2022-08-19T00:54:19.533Z,933.38
2022-08-19T00:55:20.351Z,933.36
2022-08-19T00:56:21.343Z,933.28
2022-08-19T00:57:21.965Z,933.34
2022-08-19T00:58:22.159Z,933.29
2022-08-19T00:59:53.718Z,933.36
2022-08-19T01:00:23.346Z,933.37
2022-08-19T01:01:24.329Z,933.32
2022-08-19T01:02:24.839Z,933.36
2022-08-19T01:03:25.161Z,933.37
2022-08-19T01:04:26.112Z,933.33
2022-08-19T01:05:26.303Z,933.32
2022-08-19T01:06:27.224Z,933.34
2022-08-19T01:07:28.030Z,933.35
2022-08-19T01:08:28.341Z,933.33
2022-08-19T01:09:29.264Z,933.37
2022-08-19T01:10:33.610Z,933.39
2022-08-19T01:11:31.015Z,933.43
2022-08-19T01:12:31.210Z,933.46
2022-08-19T01:13:44.710Z,933.54
2022-08-19T01:14:33.209Z,933.57
2022-08-19T01:15:33.401Z,933.59
2022-08-19T01:16:34.140Z,933.61
2022-08-19T01:17:34.634Z,933.64
2022-08-19T01:18:34.835Z,933.67
2022-08-19T01:19:43.365Z,933.67
2022-08-19T01:20:36.093Z,933.68
2022-08-19T01:21:36.635Z,933.64
2022-08-19T01:22:36.857Z,933.61
2022-08-19T01:23:37.768Z,933.57
2022-08-19T01:24:38.038Z,933.52
2022-08-19T01:25:38.554Z,933.5
2022-08-19T01:26:39.165Z,933.48
2022-08-19T01:27:42.167Z,933.47
2022-08-19T01:28:40.408Z,933.47
2022-08-19T01:29:40.710Z,933.52
2022-08-19T01:30:44.340Z,933.53
2022-08-19T01:31:42.024Z,933.57
2022-08-19T01:32:42.224Z,933.66
2022-08-19T01:33:42.768Z,933.71
2022-08-19T01:34:43.708Z,933.76
2022-08-19T01:35:44.321Z,933.79
2022-08-19T01:36:45.049Z,933.84
2022-08-19T01:37:45.545Z,933.86
2022-08-19T01:38:45.776Z,933.86
2022-08-19T01:39:46.445Z,933.89
2022-08-19T01:40:47.471Z,933.88
2022-08-19T01:41:47.638Z,933.85
2022-08-19T01:42:48.634Z,933.85
2022-08-19T01:44:03.872Z,933.82
2022-08-19T01:44:50.356Z,933.84
2022-08-19T01:45:50.999Z,933.83
2022-08-19T01:46:51.267Z,933.86
2022-08-19T01:48:01.134Z,933.88
2022-08-19T01:48:52.097Z,933.86
2022-08-19T01:49:53.046Z,933.84
2022-08-19T01:50:53.647Z,933.84
2022-08-19T01:51:54.567Z,933.8
2022-08-19T01:53:02.494Z,933.81
2022-08-19T01:53:56.116Z,933.81
2022-08-19T01:54:56.607Z,933.81
2022-08-19T01:55:56.817Z,933.86
2022-08-19T01:56:57.543Z,933.88
2022-08-19T01:57:57.737Z,933.89
2022-08-19T01:58:57.926Z,933.94
2022-08-19T01:59:58.144Z,933.9
2022-08-19T02:00:58.951Z,933.92
2022-08-19T02:01:59.484Z,933.89
2022-08-19T02:02:59.680Z,933.94
2022-08-19T02:04:00.301Z,933.94
2022-08-19T02:05:01.216Z,933.9
2022-08-19T02:06:01.971Z,933.9
2022-08-19T02:07:02.383Z,933.9
2022-08-19T02:08:03.004Z,933.95
2022-08-19T02:09:03.201Z,933.98
2022-08-19T02:10:04.572Z,933.97
2022-08-19T02:11:04.261Z,933.98
2022-08-19T02:12:04.448Z,933.96
2022-08-19T02:13:04.943Z,933.94
2022-08-19T02:14:05.812Z,933.9
2022-08-19T02:15:06.708Z,933.84
2022-08-19T02:16:07.630Z,933.82
2022-08-19T02:17:08.477Z,933.79
2022-08-19T02:18:08.673Z,933.78
2022-08-19T02:19:08.790Z,933.78
2022-08-19T02:20:09.708Z,933.8
2022-08-19T02:21:10.350Z,933.75
2022-08-19T02:22:10.970Z,933.73
2022-08-19T02:23:13.692Z,933.66
2022-08-19T02:24:12.452Z,933.65
2022-08-19T02:25:12.672Z,933.65
2022-08-19T02:26:13.172Z,933.58
2022-08-19T02:27:14.177Z,933.54
2022-08-19T02:28:17.988Z,933.53
2022-08-19T02:29:14.710Z,933.46
2022-08-19T02:30:14.907Z,933.49
2022-08-19T02:31:15.805Z,933.51
2022-08-19T02:32:16.539Z,933.53
2022-08-19T02:33:17.434Z,933.56
2022-08-19T02:34:17.934Z,933.56
2022-08-19T02:35:18.124Z,933.55
2022-08-19T02:36:20.630Z,933.53
2022-08-19T02:37:19.391Z,933.51
2022-08-19T02:38:20.215Z,933.51
2022-08-19T02:39:21.111Z,933.4
2022-08-19T02:40:22.061Z,933.45
2022-08-19T02:41:22.280Z,933.46
2022-08-19T02:42:22.677Z,933.47
2022-08-19T02:43:23.052Z,933.47
2022-08-19T02:44:28.639Z,933.46
2022-08-19T02:45:24.911Z,933.53
2022-08-19T02:46:25.993Z,933.53
2022-08-19T02:47:26.126Z,933.54
2022-08-19T02:48:26.626Z,933.52
2022-08-19T02:49:26.827Z,933.51
2022-08-19T02:50:27.652Z,933.49
2022-08-19T02:51:28.266Z,933.46
2022-08-19T02:52:28.484Z,933.39
2022-08-19T02:53:29.400Z,933.37
2022-08-19T02:54:29.892Z,933.35
2022-08-19T02:55:30.130Z,933.33
2022-08-19T02:56:31.144Z,933.36
2022-08-19T02:57:31.271Z,933.31
2022-08-19T02:58:32.188Z,933.3
2022-08-19T02:59:33.217Z,933.25
2022-08-19T03:00:34.110Z,933.23
2022-08-19T03:01:34.380Z,933.22
2022-08-19T03:02:35.014Z,933.23
2022-08-19T03:03:35.666Z,933.22
2022-08-19T03:04:36.581Z,933.22
2022-08-19T03:05:46.893Z,933.22
2022-08-19T03:06:36.946Z,933.24
2022-08-19T03:07:37.663Z,933.23
2022-08-19T03:08:38.580Z,933.3
2022-08-19T03:09:39.521Z,933.33
2022-08-19T03:10:40.163Z,933.4
2022-08-19T03:11:41.086Z,933.42
2022-08-19T03:12:41.605Z,933.5
2022-08-19T03:13:41.976Z,933.51
2022-08-19T03:14:42.867Z,933.45
2022-08-19T03:15:43.811Z,933.47
2022-08-19T03:16:44.039Z,933.4
2022-08-19T03:17:45.050Z,933.4
2022-08-19T03:18:45.658Z,933.38
2022-08-19T03:19:45.932Z,933.39
2022-08-19T03:20:46.131Z,933.28
2022-08-19T03:21:46.472Z,933.23
2022-08-19T03:22:47.420Z,933.2
2022-08-19T03:23:48.091Z,933.3
2022-08-19T03:24:48.991Z,933.29
2022-08-19T03:25:58.501Z,933.25
2022-08-19T03:26:50.258Z,933.2
2022-08-19T03:27:51.233Z,933.26
2022-08-19T03:28:57.972Z,933.31
2022-08-19T03:29:52.591Z,933.27
2022-08-19T03:30:53.020Z,933.22
2022-08-19T03:31:53.010Z,933.15
2022-08-19T03:32:56.917Z,933.14
2022-08-19T03:33:54.237Z,933.08
2022-08-19T03:34:54.907Z,933.02
2022-08-19T03:35:55.127Z,933.02
2022-08-19T03:36:56.050Z,933.08
2022-08-19T03:37:56.341Z,933
2022-08-19T03:38:59.562Z,932.96
2022-08-19T03:39:57.429Z,932.97
2022-08-19T03:40:58.208Z,932.96
2022-08-19T03:42:33.266Z,932.93
2022-08-19T03:43:07.789Z,932.89
2022-08-19T03:44:08.473Z,932.9
2022-08-19T03:45:08.592Z,932.9
2022-08-19T03:46:09.499Z,932.89
2022-08-19T03:47:09.815Z,932.89
2022-08-19T03:48:10.849Z,932.9
2022-08-19T03:49:13.933Z,932.92
2022-08-19T03:50:12.601Z,932.92
2022-08-19T03:51:13.151Z,932.94
2022-08-19T03:52:13.821Z,932.94
2022-08-19T03:53:14.040Z,932.92
2022-08-19T03:54:14.529Z,932.87
2022-08-19T03:55:15.028Z,932.86
2022-08-19T03:56:15.949Z,932.86
2022-08-19T03:57:16.604Z,932.84
2022-08-19T03:58:16.709Z,932.84
2022-08-19T03:59:16.901Z,932.86
2022-08-19T04:00:17.394Z,932.85
2022-08-19T04:01:17.609Z,932.87
2022-08-19T04:02:18.363Z,932.87
2022-08-19T04:03:19.257Z,932.95
2022-08-19T04:04:20.174Z,932.96
2022-08-19T04:05:20.803Z,933
2022-08-19T04:06:21.748Z,933.04
2022-08-19T04:07:22.178Z,933.02
2022-08-19T04:08:22.576Z,933.07
2022-08-19T04:09:22.798Z,933.04
2022-08-19T04:10:23.726Z,933.11
2022-08-19T04:11:24.692Z,933.1
2022-08-19T04:12:25.425Z,933.14
2022-08-19T04:13:25.618Z,933.11
2022-08-19T04:14:26.261Z,933.1
2022-08-19T04:15:26.375Z,933.14
2022-08-19T04:16:31.091Z,933.19
2022-08-19T04:17:27.224Z,933.2
2022-08-19T04:18:27.946Z,933.25
2022-08-19T04:19:28.877Z,933.26
2022-08-19T04:20:29.491Z,933.28
2022-08-19T04:21:29.686Z,933.27
2022-08-19T04:22:30.635Z,933.34
2022-08-19T04:23:31.594Z,933.32
2022-08-19T04:24:32.653Z,933.34
2022-08-19T04:25:33.574Z,933.35
2022-08-19T04:26:33.913Z,933.38
2022-08-19T04:27:34.836Z,933.38
2022-08-19T04:28:35.423Z,933.33
2022-08-19T04:29:35.623Z,933.36
2022-08-19T04:30:36.540Z,933.38
2022-08-19T04:31:37.466Z,933.34
2022-08-19T04:32:38.087Z,933.37
2022-08-19T04:33:38.545Z,933.4
2022-08-19T04:35:01.805Z,933.4
2022-08-19T04:35:40.411Z,933.38
2022-08-19T04:36:41.306Z,933.4
2022-08-19T04:37:41.506Z,933.4
2022-08-19T04:38:41.952Z,933.43
2022-08-19T04:39:42.874Z,933.46
2022-08-19T04:40:43.624Z,933.45
2022-08-19T04:41:44.117Z,933.47
2022-08-19T04:42:44.614Z,933.49
2022-08-19T04:43:45.107Z,933.51
2022-08-19T04:44:45.954Z,933.49
2022-08-19T04:45:45.715Z,933.48
2022-08-19T04:46:50.840Z,933.49
2022-08-19T04:47:57.893Z,933.48
2022-08-19T04:49:20.826Z,933.48
2022-08-19T04:50:21.729Z,933.5
2022-08-19T04:51:22.738Z,933.5
2022-08-19T04:52:23.083Z,933.52
2022-08-19T04:53:23.285Z,933.59
2022-08-19T04:54:34.799Z,933.6
2022-08-19T04:55:24.840Z,933.62
2022-08-19T04:56:25.431Z,933.65
2022-08-19T04:57:26.356Z,933.69
2022-08-19T04:58:27.276Z,933.65
2022-08-19T04:59:27.450Z,933.62
2022-08-19T05:00:28.365Z,933.63
2022-08-19T05:01:29.247Z,933.65
2022-08-19T05:02:29.507Z,933.62
2022-08-19T05:03:30.605Z,933.61
2022-08-19T05:04:30.918Z,933.63
2022-08-19T05:05:31.856Z,933.65
2022-08-19T05:06:32.059Z,933.68
2022-08-19T05:07:32.385Z,933.67
2022-08-19T05:08:33.009Z,933.69
2022-08-19T05:09:52.548Z,933.7
2022-08-19T05:10:34.207Z,933.72
2022-08-19T05:11:35.112Z,933.66
2022-08-19T05:12:35.601Z,933.6
2022-08-19T05:13:36.395Z,933.64
2022-08-19T05:14:37.452Z,933.62
2022-08-19T05:15:38.357Z,933.57
2022-08-19T05:16:39.273Z,933.58
2022-08-19T05:17:40.251Z,933.54
2022-08-19T05:18:41.174Z,933.53
2022-08-19T05:19:41.881Z,933.49
2022-08-19T05:20:42.090Z,933.49
2022-08-19T05:21:42.801Z,933.52
2022-08-19T05:22:43.718Z,933.49
2022-08-19T05:23:44.191Z,933.46
2022-08-19T05:25:02.700Z,933.43
2022-08-19T05:25:45.696Z,933.41
2022-08-19T05:26:46.295Z,933.36
2022-08-19T05:27:47.258Z,933.33
2022-08-19T05:28:50.236Z,933.32
2022-08-19T05:29:49.127Z,933.36
2022-08-19T05:30:49.621Z,933.37
2022-08-19T05:31:49.832Z,933.39
2022-08-19T05:32:50.230Z,933.42
2022-08-19T05:33:50.531Z,933.41
2022-08-19T05:34:51.013Z,933.41
2022-08-19T05:35:51.977Z,933.42
2022-08-19T05:36:52.935Z,933.4
2022-08-19T05:37:54.846Z,933.44
2022-08-19T05:38:53.828Z,933.4
2022-08-19T05:39:54.275Z,933.4
2022-08-19T05:40:54.473Z,933.41
2022-08-19T05:41:55.204Z,933.4
2022-08-19T05:42:56.096Z,933.4
2022-08-19T05:43:57.021Z,933.44
2022-08-19T05:44:58.014Z,933.45
2022-08-19T05:45:58.218Z,933.46
2022-08-19T05:46:58.446Z,933.47
2022-08-19T05:47:58.666Z,933.48
2022-08-19T05:48:58.992Z,933.52
2022-08-19T05:49:59.699Z,933.53
2022-08-19T05:51:00.766Z,933.59
2022-08-19T05:52:01.156Z,933.6
2022-08-19T05:53:01.488Z,933.71
2022-08-19T05:54:01.691Z,933.72
2022-08-19T05:55:01.887Z,933.72
2022-08-19T05:56:02.393Z,933.76
2022-08-19T05:57:02.594Z,933.74
2022-08-19T05:58:02.989Z,933.75
2022-08-19T05:59:03.550Z,933.77
2022-08-19T06:00:03.670Z,933.8
2022-08-19T06:01:04.282Z,933.78
2022-08-19T06:02:04.505Z,933.81
2022-08-19T06:03:11.748Z,933.8
2022-08-19T06:04:05.831Z,933.81
2022-08-19T06:05:06.828Z,933.79
2022-08-19T06:06:07.051Z,933.77
2022-08-19T06:07:11.926Z,933.76
2022-08-19T06:08:07.692Z,933.75
2022-08-19T06:09:08.426Z,933.75
2022-08-19T06:10:08.970Z,933.7
2022-08-19T06:11:09.209Z,933.68
2022-08-19T06:12:09.404Z,933.64
2022-08-19T06:13:10.051Z,933.61
2022-08-19T06:14:13.724Z,933.58
2022-08-19T06:15:11.376Z,933.55
2022-08-19T06:16:11.595Z,933.54
2022-08-19T06:17:11.794Z,933.49
2022-08-19T06:18:12.805Z,933.46
2022-08-19T06:19:13.304Z,933.43
2022-08-19T06:20:13.800Z,933.45
2022-08-19T06:21:14.871Z,933.47
2022-08-19T06:22:15.068Z,933.48
2022-08-19T06:23:16.239Z,933.5
2022-08-19T06:24:15.931Z,933.53
2022-08-19T06:25:16.851Z,933.5
2022-08-19T06:26:17.311Z,933.53
2022-08-19T06:27:18.269Z,933.59
2022-08-19T06:28:19.438Z,933.56
2022-08-19T06:29:23.607Z,933.57
2022-08-19T06:30:20.131Z,933.57
2022-08-19T06:31:20.971Z,933.56
2022-08-19T06:32:21.879Z,933.54
2022-08-19T06:33:22.096Z,933.53
2022-08-19T06:34:22.506Z,933.53
2022-08-19T06:35:23.530Z,933.46
2022-08-19T06:36:25.184Z,933.49
2022-08-19T06:37:24.820Z,933.49
2022-08-19T06:38:25.543Z,933.48
2022-08-19T06:39:25.790Z,933.49
2022-08-19T06:40:26.396Z,933.5
2022-08-19T06:41:27.327Z,933.42
2022-08-19T06:42:27.630Z,933.46
2022-08-19T06:43:28.096Z,933.46
2022-08-19T06:44:28.576Z,933.46
2022-08-19T06:45:34.381Z,933.5
2022-08-19T06:46:29.810Z,933.54
2022-08-19T06:47:30.502Z,933.56
2022-08-19T06:48:30.798Z,933.57
2022-08-19T06:49:30.962Z,933.62
2022-08-19T06:50:31.505Z,933.68
2022-08-19T06:52:34.012Z,933.76
2022-08-19T06:53:33.592Z,933.8
2022-08-19T06:54:37.595Z,933.85
2022-08-19T06:55:34.619Z,933.83
2022-08-19T06:56:35.287Z,933.86
2022-08-19T06:57:35.503Z,933.86
2022-08-19T06:58:35.911Z,933.89
2022-08-19T06:59:36.108Z,933.91
2022-08-19T07:00:36.969Z,933.93
2022-08-19T07:01:37.971Z,933.9
2022-08-19T07:02:38.173Z,933.93
2022-08-19T07:03:39.666Z,933.91
2022-08-19T07:04:42.178Z,933.9
2022-08-19T07:05:40.313Z,933.92
2022-08-19T07:06:43.813Z,933.88
2022-08-19T07:07:42.198Z,933.84
2022-08-19T07:08:42.497Z,933.87
2022-08-19T07:09:43.041Z,933.89
2022-08-19T07:10:45.213Z,933.84
2022-08-19T07:11:45.559Z,933.88
2022-08-19T07:12:46.607Z,933.86
2022-08-19T07:13:47.297Z,933.86
2022-08-19T07:14:48.329Z,933.89
2022-08-19T07:15:48.475Z,933.86
2022-08-19T07:16:49.378Z,933.89
2022-08-19T07:17:52.695Z,933.93
2022-08-19T07:18:50.648Z,933.94
2022-08-19T07:19:51.350Z,933.9
2022-08-19T07:21:00.337Z,933.92
2022-08-19T07:22:00.841Z,933.94
2022-08-19T07:23:01.896Z,933.93
2022-08-19T07:24:03.026Z,933.95
2022-08-19T07:25:02.899Z,933.93
2022-08-19T07:27:03.411Z,933.93
2022-08-19T07:28:04.120Z,933.9
2022-08-19T07:29:04.658Z,933.89
2022-08-19T07:30:04.784Z,933.91
2022-08-19T07:31:05.399Z,933.91
2022-08-19T07:32:05.546Z,933.93
2022-08-19T07:33:05.834Z,933.96
2022-08-19T07:34:06.462Z,933.97
2022-08-19T07:35:06.695Z,933.95
2022-08-19T07:36:07.735Z,933.96
2022-08-19T07:37:07.763Z,933.97
2022-08-19T07:38:08.835Z,933.96
2022-08-19T07:39:09.738Z,933.97
2022-08-19T07:40:10.247Z,933.96
2022-08-19T07:41:11.118Z,933.97
2022-08-19T07:42:11.331Z,934.02
2022-08-19T07:43:14.159Z,934
2022-08-19T07:44:12.206Z,934
2022-08-19T07:45:12.880Z,934
2022-08-19T07:46:13.780Z,934.01
2022-08-19T07:47:47.201Z,933.99
2022-08-19T07:48:14.862Z,933.99
2022-08-19T07:49:15.052Z,934.02
2022-08-19T07:50:15.969Z,934.03
2022-08-19T07:51:16.664Z,934.02
2022-08-19T07:52:17.198Z,934.01
2022-08-19T07:53:17.694Z,934.03
2022-08-19T07:54:17.884Z,933.99
2022-08-19T07:55:40.973Z,933.99
2022-08-19T07:56:18.865Z,933.94
2022-08-19T07:57:19.062Z,933.94
2022-08-19T07:58:20.017Z,933.93
2022-08-19T07:59:20.957Z,933.91
2022-08-19T08:00:23.133Z,933.87
2022-08-19T08:01:22.426Z,933.95
2022-08-19T08:02:22.972Z,933.92
2022-08-19T08:03:23.469Z,933.9
2022-08-19T08:04:23.692Z,933.9
2022-08-19T08:05:23.999Z,933.92
2022-08-19T08:06:24.325Z,933.92
2022-08-19T08:07:24.464Z,933.95
2022-08-19T08:08:27.059Z,933.92
2022-08-19T08:09:26.085Z,933.92
2022-08-19T08:10:26.386Z,933.91
2022-08-19T08:11:26.834Z,933.92
2022-08-19T08:12:35.225Z,933.93
2022-08-19T08:13:27.650Z,933.89
2022-08-19T08:14:29.196Z,933.91
2022-08-19T08:15:28.391Z,933.93
2022-08-19T08:16:28.926Z,933.94
2022-08-19T08:17:30.948Z,933.95
2022-08-19T08:18:30.483Z,933.94
2022-08-19T08:19:30.212Z,933.92
2022-08-19T08:20:30.366Z,933.94
2022-08-19T08:21:30.763Z,933.9
2022-08-19T08:22:31.808Z,933.91
2022-08-19T08:23:32.567Z,933.92
2022-08-19T08:24:32.687Z,933.89
2022-08-19T08:25:34.287Z,933.91
2022-08-19T08:26:33.792Z,933.93
2022-08-19T08:27:34.431Z,933.91
2022-08-19T08:28:34.816Z,933.89
2022-08-19T08:29:35.355Z,933.93
2022-08-19T08:30:36.044Z,933.92
2022-08-19T08:31:36.564Z,933.93
2022-08-19T08:32:37.365Z,933.92
2022-08-19T08:33:38.414Z,933.96
2022-08-19T08:34:39.265Z,933.92
2022-08-19T08:35:39.922Z,933.92
2022-08-19T08:36:40.928Z,933.9
2022-08-19T08:37:41.848Z,933.92
2022-08-19T08:38:42.340Z,933.95
2022-08-19T08:39:42.778Z,933.87
2022-08-19T08:40:43.367Z,933.92
2022-08-19T08:41:43.815Z,933.94
2022-08-19T08:42:44.616Z,933.96
2022-08-19T08:43:45.132Z,933.99
2022-08-19T08:44:45.801Z,933.99
2022-08-19T08:45:46.676Z,934.02
2022-08-19T08:46:47.762Z,934.05
2022-08-19T08:47:48.501Z,934.1
2022-08-19T08:48:52.671Z,934.1
2022-08-19T08:49:51.263Z,934.11
2022-08-19T08:50:49.175Z,934.15
2022-08-19T08:51:50.003Z,934.19
2022-08-19T08:52:50.116Z,934.17
2022-08-19T08:53:50.772Z,934.12
2022-08-19T08:54:55.126Z,934.12
2022-08-19T08:55:52.373Z,934.15
2022-08-19T08:56:53.302Z,934.15
2022-08-19T08:57:53.779Z,934.14
2022-08-19T08:58:54.902Z,934.15
2022-08-19T08:59:55.143Z,934.17
2022-08-19T09:00:56.039Z,934.21
2022-08-19T09:01:56.303Z,934.22
2022-08-19T09:02:56.479Z,934.25
2022-08-19T09:03:57.356Z,934.25
2022-08-19T09:04:58.337Z,934.29
2022-08-19T09:05:59.048Z,934.3
2022-08-19T09:06:59.565Z,934.33
2022-08-19T09:08:00.286Z,934.33
2022-08-19T09:09:00.999Z,934.35
2022-08-19T09:10:01.566Z,934.34
2022-08-19T09:11:02.620Z,934.35
2022-08-19T09:12:27.780Z,934.32
2022-08-19T09:13:28.470Z,934.32
2022-08-19T09:14:49.088Z,934.32
2022-08-19T09:15:33.481Z,934.31
2022-08-19T09:16:30.611Z,934.24
2022-08-19T09:17:31.235Z,934.24
2022-08-19T09:18:31.719Z,934.23
2022-08-19T09:19:32.720Z,934.23
2022-08-19T09:20:33.168Z,934.24
2022-08-19T09:21:34.160Z,934.23
2022-08-19T09:22:34.013Z,934.26
2022-08-19T09:23:34.470Z,934.25
2022-08-19T09:24:34.871Z,934.27
2022-08-19T09:25:35.801Z,934.27
2022-08-19T09:26:47.734Z,934.26
2022-08-19T09:27:43.664Z,934.26
2022-08-19T09:28:43.037Z,934.27
2022-08-19T09:29:43.252Z,934.3
2022-08-19T09:30:44.070Z,934.3
2022-08-19T09:31:44.622Z,934.31
2022-08-19T09:32:45.359Z,934.3
2022-08-19T09:33:45.585Z,934.3
2022-08-19T09:34:49.651Z,934.29
2022-08-19T09:35:50.256Z,934.28
2022-08-19T09:36:47.873Z,934.29
2022-08-19T09:37:48.563Z,934.29
2022-08-19T09:38:49.528Z,934.27
2022-08-19T09:39:49.779Z,934.25
2022-08-19T09:40:50.909Z,934.29
2022-08-19T09:41:51.340Z,934.23
2022-08-19T09:43:02.080Z,934.28
2022-08-19T09:44:02.519Z,934.27
2022-08-19T09:45:04.946Z,934.23
2022-08-19T09:46:03.009Z,934.28
2022-08-19T09:47:03.576Z,934.27
2022-08-19T09:48:04.554Z,934.31
2022-08-19T09:49:06.217Z,934.29
2022-08-19T09:50:05.241Z,934.31
2022-08-19T09:51:06.256Z,934.28
2022-08-19T09:52:06.426Z,934.3
2022-08-19T09:53:07.659Z,934.29
2022-08-19T09:54:11.249Z,934.29
2022-08-19T09:55:08.710Z,934.28
2022-08-19T09:56:09.504Z,934.26
2022-08-19T09:57:10.427Z,934.3
2022-08-19T09:58:10.635Z,934.29
2022-08-19T09:59:11.035Z,934.3
2022-08-19T10:00:11.668Z,934.3
2022-08-19T10:01:12.240Z,934.32
2022-08-19T10:03:12.801Z,934.31
2022-08-19T10:04:14.805Z,934.38
2022-08-19T10:07:17.726Z,934.4
2022-08-19T10:08:21.888Z,934.37
2022-08-19T10:09:26.572Z,934.38
2022-08-19T10:10:22.985Z,934.37
2022-08-19T10:11:27.749Z,934.34
2022-08-19T10:12:24.914Z,934.36
2022-08-19T10:13:25.060Z,934.39
2022-08-19T10:14:25.267Z,934.39
2022-08-19T10:15:28.901Z,934.35
2022-08-19T10:16:29.181Z,934.29
2022-08-19T10:17:31.578Z,934.29
2022-08-19T10:18:32.223Z,934.29
2022-08-19T10:19:33.073Z,934.29
2022-08-19T10:20:33.466Z,934.28
2022-08-19T10:21:34.517Z,934.31
2022-08-19T10:22:35.461Z,934.38
2022-08-19T10:24:35.921Z,934.33
2022-08-19T10:25:36.882Z,934.34
2022-08-19T10:26:37.942Z,934.3
2022-08-19T10:27:38.264Z,934.27
2022-08-19T10:28:42.634Z,934.24
2022-08-19T10:29:46.231Z,934.27
2022-08-19T10:30:42.458Z,934.28
2022-08-19T10:32:00.197Z,934.25
2022-08-19T10:32:46.257Z,934.28
2022-08-19T10:33:53.003Z,934.3
2022-08-19T10:34:47.985Z,934.32
2022-08-19T10:35:56.670Z,934.36
2022-08-19T10:36:51.744Z,934.32
2022-08-19T10:37:56.688Z,934.32
2022-08-19T10:39:02.295Z,934.32
2022-08-19T10:40:02.858Z,934.29
2022-08-19T10:41:03.234Z,934.31
2022-08-19T10:42:03.440Z,934.28
2022-08-19T10:43:04.513Z,934.33
2022-08-19T10:44:05.502Z,934.34
2022-08-19T10:45:05.970Z,934.36
2022-08-19T10:46:09.611Z,934.29
2022-08-19T10:47:17.450Z,934.26
2022-08-19T10:48:07.642Z,934.31
2022-08-19T10:49:08.703Z,934.3
2022-08-19T10:50:09.209Z,934.3
2022-08-19T10:51:09.478Z,934.34
2022-08-19T10:52:10.555Z,934.28
2022-08-19T10:53:10.969Z,934.25
2022-08-19T10:54:12.498Z,934.23
2022-08-19T10:55:11.533Z,934.23
2022-08-19T10:56:12.489Z,934.25
2022-08-19T10:57:13.140Z,934.22
2022-08-19T10:58:13.831Z,934.22
2022-08-19T10:59:14.282Z,934.2
2022-08-19T11:00:14.899Z,934.22
2022-08-19T11:01:15.860Z,934.2
2022-08-19T11:02:16.590Z,934.18
2022-08-19T11:03:17.523Z,934.18
2022-08-19T11:04:18.171Z,934.2
2022-08-19T11:05:18.911Z,934.2
2022-08-19T11:06:19.412Z,934.18
2022-08-19T11:07:20.363Z,934.19
2022-08-19T11:08:22.197Z,934.14
2022-08-19T11:09:21.779Z,934.16
2022-08-19T11:10:22.678Z,934.1
2022-08-19T11:11:23.135Z,934.13
2022-08-19T11:12:23.454Z,934.14
2022-08-19T11:13:23.662Z,934.13
2022-08-19T11:14:23.897Z,934.06
2022-08-19T11:15:24.058Z,934.13
2022-08-19T11:16:24.557Z,934.07
2022-08-19T11:17:24.785Z,934.09
2022-08-19T11:18:25.290Z,934.05
2022-08-19T11:19:26.010Z,934.03
2022-08-19T11:20:26.642Z,934.02
2022-08-19T11:21:27.617Z,934.08
2022-08-19T11:22:31.810Z,934.06
2022-08-19T11:23:28.171Z,934.07
2022-08-19T11:24:29.088Z,934.1
2022-08-19T11:25:29.311Z,934.06
2022-08-19T11:26:29.987Z,934.04
2022-08-19T11:27:30.909Z,934.06
2022-08-19T11:28:31.225Z,934.04
2022-08-19T11:29:31.868Z,934
2022-08-19T11:30:32.092Z,933.96
2022-08-19T11:31:32.295Z,933.99
2022-08-19T11:32:33.224Z,933.99
2022-08-19T11:33:33.997Z,933.97
2022-08-19T11:34:34.446Z,933.97
2022-08-19T11:35:35.377Z,933.98
2022-08-19T11:36:35.728Z,934
2022-08-19T11:37:36.634Z,934.03
2022-08-19T11:38:36.886Z,934.04
2022-08-19T11:39:37.412Z,934.06
2022-08-19T11:40:38.005Z,934.04
2022-08-19T11:41:38.623Z,934.02
2022-08-19T11:42:39.546Z,934.02
2022-08-19T11:43:40.243Z,934.03
2022-08-19T11:44:41.170Z,934.03
2022-08-19T11:45:42.103Z,934.06
2022-08-19T11:46:43.019Z,934.02
2022-08-19T11:47:43.462Z,934.03
2022-08-19T11:48:44.005Z,934.02
2022-08-19T11:49:45.072Z,934
2022-08-19T11:50:45.983Z,933.94
2022-08-19T11:51:46.617Z,933.99
2022-08-19T11:52:47.060Z,933.98
2022-08-19T11:53:48.133Z,933.95
2022-08-19T11:54:48.341Z,933.95
2022-08-19T11:55:49.243Z,933.96
2022-08-19T11:56:49.893Z,933.97
2022-08-19T11:57:50.366Z,933.93
2022-08-19T11:58:50.625Z,933.94
2022-08-19T11:59:51.540Z,933.99
2022-08-19T12:00:52.454Z,933.95
2022-08-19T12:01:52.660Z,933.99
2022-08-19T12:02:53.327Z,933.99
2022-08-19T12:03:54.452Z,933.98
2022-08-19T12:04:54.585Z,934.04
2022-08-19T12:05:55.304Z,934.01
2022-08-19T12:06:56.370Z,934.01
2022-08-19T12:07:57.031Z,933.99
2022-08-19T12:08:57.229Z,934.05
2022-08-19T12:09:57.991Z,934.05
2022-08-19T12:10:59.016Z,934.03
2022-08-19T12:11:59.967Z,934.04
2022-08-19T12:13:00.320Z,934.03
2022-08-19T12:14:00.533Z,934.02
2022-08-19T12:15:01.232Z,933.97
2022-08-19T12:16:02.307Z,934.02
2022-08-19T12:17:03.237Z,934.06
2022-08-19T12:18:03.753Z,934.05
2022-08-19T12:19:03.998Z,934.05
2022-08-19T12:20:04.716Z,934.1
2022-08-19T12:21:04.925Z,934.15
2022-08-19T12:22:05.850Z,934.18
2022-08-19T12:23:06.752Z,934.22
2022-08-19T12:24:07.689Z,934.14
2022-08-19T12:25:08.317Z,934.21
2022-08-19T12:26:09.165Z,934.18
2022-08-19T12:27:12.698Z,934.21
2022-08-19T12:28:10.085Z,934.23
2022-08-19T12:29:10.729Z,934.15
2022-08-19T12:30:11.088Z,934.18
2022-08-19T12:31:12.037Z,934.18
2022-08-19T12:32:12.460Z,934.17
2022-08-19T12:33:12.978Z,934.21
2022-08-19T12:34:13.892Z,934.19
2022-08-19T12:35:14.109Z,934.25
2022-08-19T12:36:14.546Z,934.15
2022-08-19T12:37:15.341Z,934.2
2022-08-19T12:38:15.985Z,934.15
2022-08-19T12:39:16.907Z,934.12
2022-08-19T12:40:17.564Z,934.18
2022-08-19T12:41:17.804Z,934.14
2022-08-19T12:42:18.163Z,934.17
2022-08-19T12:43:19.097Z,934.15
2022-08-19T12:44:19.330Z,934.16
2022-08-19T12:45:19.439Z,934.17
2022-08-19T12:46:19.622Z,934.18
2022-08-19T12:47:20.237Z,934.18